New York, New York
Traffic Map
Current Weather Conditions
New York, New York
Few Clouds
Few Clouds
75°
Feels Like: 75°
Wind Chill: 75° Ceiling: Unl
Heat Index: 75° Visibility: 9mi
Dew Point: 68° Wind: 6mph
Humidity: 78% Direction: 240° (WSW)
Pressure: 30.2in Gusts: 0mph
Raw Report DataKJRB 012215Z AUTO 24005KT 9SM FEW021 24/20 A3020 RMK AO1
Traffic Incident Summary
Active as of:
Severity:
Category:
InformationThere was an issue retrieving the traffic information for this location. Please try a different location or try again shortly.
Advertisements
Track Severe Weather on mobile